createdAt,value
2019-04-29T00:00:58.453Z,310.39
2019-04-29T00:01:58.441Z,311.61
2019-04-29T00:02:58.475Z,311.87
2019-04-29T00:03:58.408Z,310.83
2019-04-29T00:04:58.401Z,311.08
2019-04-29T00:05:58.405Z,311.09
2019-04-29T00:06:58.401Z,311.53
2019-04-29T00:07:58.376Z,311.83
2019-04-29T00:08:58.381Z,310.78
2019-04-29T00:09:58.365Z,310.50
2019-04-29T00:10:58.341Z,310.36
2019-04-29T00:11:58.350Z,310.77
2019-04-29T00:12:58.350Z,311.35
2019-04-29T00:13:58.316Z,311.32
2019-04-29T00:14:58.310Z,310.91
2019-04-29T00:15:58.286Z,312.22
2019-04-29T00:16:58.278Z,312.20
2019-04-29T00:17:58.290Z,310.70
2019-04-29T00:18:58.248Z,311.88
2019-04-29T00:19:58.253Z,311.79
2019-04-29T00:20:58.244Z,312.07
2019-04-29T00:21:58.225Z,310.86
2019-04-29T00:22:58.215Z,311.93
2019-04-29T00:24:04.056Z,311.08
2019-04-29T00:24:59.199Z,310.90
2019-04-29T00:25:58.185Z,312.73
2019-04-29T00:26:58.162Z,311.51
2019-04-29T00:27:58.155Z,311.66
2019-04-29T00:28:58.235Z,310.74
2019-04-29T00:29:58.169Z,311.78
2019-04-29T00:30:58.115Z,310.89
2019-04-29T00:31:58.110Z,311.53
2019-04-29T00:32:58.104Z,311.03
2019-04-29T00:33:58.090Z,311.08
2019-04-29T00:34:58.073Z,311.42
2019-04-29T00:35:58.089Z,311.48
2019-04-29T00:36:58.085Z,311.44
2019-04-29T00:37:58.064Z,310.90
2019-04-29T00:38:58.039Z,311.10
2019-04-29T00:39:58.014Z,310.75
2019-04-29T00:40:58.010Z,311.92
2019-04-29T00:41:58.021Z,312.07
2019-04-29T00:42:57.995Z,312.82
2019-04-29T00:43:57.999Z,311.70
2019-04-29T00:44:57.974Z,311.42
2019-04-29T00:45:57.976Z,311.42
2019-04-29T00:46:57.974Z,312.51
2019-04-29T00:47:57.937Z,311.69
2019-04-29T00:48:57.948Z,311.16
2019-04-29T00:49:57.918Z,311.92
2019-04-29T00:50:57.891Z,311.78
2019-04-29T00:51:57.902Z,311.43
2019-04-29T00:52:57.883Z,312.97
2019-04-29T00:53:57.889Z,312.18
2019-04-29T00:54:57.863Z,313.15
2019-04-29T00:55:57.863Z,312.57
2019-04-29T00:56:57.842Z,312.75
2019-04-29T00:57:57.835Z,313.09
2019-04-29T00:58:57.873Z,313.42
2019-04-29T00:59:57.805Z,312.45
2019-04-29T01:00:57.788Z,314.22
2019-04-29T01:01:57.773Z,313.53
2019-04-29T01:02:57.786Z,312.66
2019-04-29T01:03:57.776Z,314.16
2019-04-29T01:04:57.753Z,313.30
2019-04-29T01:05:57.743Z,312.62
2019-04-29T01:06:57.741Z,313.74
2019-04-29T01:07:57.709Z,312.82
2019-04-29T01:08:57.701Z,314.50
2019-04-29T01:09:57.735Z,313.47
2019-04-29T01:10:57.684Z,313.91
2019-04-29T01:11:57.671Z,313.17
2019-04-29T01:12:57.657Z,315.37
2019-04-29T01:13:57.644Z,313.81
2019-04-29T01:14:57.646Z,315.91
2019-04-29T01:15:57.659Z,314.42
2019-04-29T01:16:57.623Z,313.52
2019-04-29T01:17:57.637Z,315.02
2019-04-29T01:18:57.614Z,313.29
2019-04-29T01:19:57.576Z,313.62
2019-04-29T01:20:57.573Z,313.62
2019-04-29T01:21:57.574Z,313.13
2019-04-29T01:22:57.556Z,312.86
2019-04-29T01:23:57.554Z,312.48
2019-04-29T01:24:57.544Z,313.28
2019-04-29T01:25:57.515Z,312.82
2019-04-29T01:26:57.530Z,313.39
2019-04-29T01:27:57.510Z,313.54
2019-04-29T01:28:57.491Z,312.93
2019-04-29T01:29:57.495Z,312.57
2019-04-29T01:30:57.486Z,313.80
2019-04-29T01:31:57.460Z,312.66
2019-04-29T01:32:57.438Z,313.30
2019-04-29T01:33:57.427Z,313.11
2019-04-29T01:34:57.418Z,314.51
2019-04-29T01:35:57.412Z,313.56
2019-04-29T01:36:57.419Z,312.84
2019-04-29T01:37:57.392Z,312.94
2019-04-29T01:38:57.412Z,311.28
2019-04-29T01:39:57.358Z,312.35
2019-04-29T01:40:57.351Z,312.83
2019-04-29T01:41:57.355Z,311.88
2019-04-29T01:42:57.350Z,312.93
2019-04-29T01:43:57.314Z,313.06
2019-04-29T01:44:57.319Z,312.33
2019-04-29T01:45:57.294Z,313.10
2019-04-29T01:46:57.291Z,312.74
2019-04-29T01:47:57.295Z,312.24
2019-04-29T01:48:57.292Z,313.32
2019-04-29T01:49:57.255Z,312.40
2019-04-29T01:50:57.242Z,311.93
2019-04-29T01:51:57.228Z,312.27
2019-04-29T01:52:57.234Z,313.13
2019-04-29T01:53:57.209Z,313.77
2019-04-29T01:54:57.198Z,312.01
2019-04-29T01:55:57.215Z,311.68
2019-04-29T01:56:57.189Z,312.58
2019-04-29T01:57:57.189Z,311.60
2019-04-29T01:58:57.157Z,312.57
2019-04-29T01:59:57.150Z,312.81
2019-04-29T02:00:57.148Z,311.66
2019-04-29T02:01:57.130Z,311.29
2019-04-29T02:02:57.137Z,313.00
2019-04-29T02:03:57.108Z,311.54
2019-04-29T02:04:57.103Z,312.17
2019-04-29T02:05:57.088Z,312.57
2019-04-29T02:06:57.067Z,312.27
2019-04-29T02:07:57.060Z,312.41
2019-04-29T02:08:57.074Z,312.09
2019-04-29T02:09:57.061Z,312.01
2019-04-29T02:10:57.032Z,311.93
2019-04-29T02:11:57.012Z,312.74
2019-04-29T02:12:57.021Z,312.04
2019-04-29T02:13:56.999Z,312.57
2019-04-29T02:14:56.989Z,312.15
2019-04-29T02:15:56.974Z,313.02
2019-04-29T02:16:56.955Z,312.25
2019-04-29T02:17:56.962Z,312.69
2019-04-29T02:18:56.938Z,313.01
2019-04-29T02:19:56.939Z,313.48
2019-04-29T02:20:56.917Z,313.67
2019-04-29T02:21:56.918Z,313.61
2019-04-29T02:22:56.929Z,314.31
2019-04-29T02:23:56.871Z,313.65
2019-04-29T02:24:56.871Z,313.67
2019-04-29T02:25:56.878Z,313.82
2019-04-29T02:26:56.839Z,314.36
2019-04-29T02:27:56.853Z,313.62
2019-04-29T02:28:56.883Z,314.23
2019-04-29T02:29:56.814Z,313.35
2019-04-29T02:30:56.800Z,313.06
2019-04-29T02:31:56.791Z,314.00
2019-04-29T02:32:56.816Z,313.38
2019-04-29T02:33:56.782Z,313.34
2019-04-29T02:34:56.788Z,313.65
2019-04-29T02:35:56.751Z,313.45
2019-04-29T02:36:56.756Z,314.15
2019-04-29T02:37:56.738Z,315.07
2019-04-29T02:38:56.735Z,313.62
2019-04-29T02:39:56.708Z,313.79
2019-04-29T02:40:56.701Z,313.60
2019-04-29T02:41:56.695Z,314.00
2019-04-29T02:42:56.679Z,314.06
2019-04-29T02:43:56.679Z,313.89
2019-04-29T02:44:56.664Z,314.20
2019-04-29T02:45:56.660Z,313.67
2019-04-29T02:46:56.626Z,314.08
2019-04-29T02:47:56.648Z,313.59
2019-04-29T02:48:56.627Z,313.01
2019-04-29T02:49:56.593Z,314.53
2019-04-29T02:50:56.581Z,313.66
2019-04-29T02:51:56.578Z,314.17
2019-04-29T02:52:56.568Z,314.25
2019-04-29T02:53:56.574Z,314.71
2019-04-29T02:54:56.537Z,314.25
2019-04-29T02:55:56.528Z,315.10
2019-04-29T02:56:56.514Z,314.39
2019-04-29T02:57:56.508Z,315.06
2019-04-29T02:58:56.515Z,314.26
2019-04-29T02:59:56.494Z,314.22
2019-04-29T03:00:56.481Z,314.78
2019-04-29T03:01:56.460Z,314.58
2019-04-29T03:02:56.454Z,314.21
2019-04-29T03:03:56.481Z,314.57
2019-04-29T03:04:56.439Z,314.82
2019-04-29T03:05:56.440Z,315.48
2019-04-29T03:06:56.423Z,315.03
2019-04-29T03:07:56.394Z,316.62
2019-04-29T03:08:56.404Z,314.91
2019-04-29T03:09:56.387Z,314.94
2019-04-29T03:10:56.416Z,314.97
2019-04-29T03:11:56.375Z,314.82
2019-04-29T03:12:56.353Z,315.05
2019-04-29T03:13:56.342Z,314.52
2019-04-29T03:14:56.345Z,315.21
2019-04-29T03:15:56.313Z,315.40
2019-04-29T03:16:56.317Z,314.82
2019-04-29T03:17:56.295Z,314.42
2019-04-29T03:18:56.284Z,315.28
2019-04-29T03:19:56.283Z,314.38
2019-04-29T03:20:56.250Z,315.65
2019-04-29T03:21:56.266Z,314.41
2019-04-29T03:22:56.226Z,315.05
2019-04-29T03:23:56.235Z,315.36
2019-04-29T03:24:56.249Z,314.73
2019-04-29T03:25:56.210Z,315.79
2019-04-29T03:26:56.194Z,315.43
2019-04-29T03:27:56.169Z,314.70
2019-04-29T03:28:56.157Z,314.01
2019-04-29T03:29:56.171Z,314.56
2019-04-29T03:30:56.131Z,316.21
2019-04-29T03:31:56.255Z,315.55
2019-04-29T03:32:56.122Z,315.36
2019-04-29T03:33:56.110Z,314.25
2019-04-29T03:34:56.132Z,315.08
2019-04-29T03:35:56.101Z,314.89
2019-04-29T03:36:56.097Z,314.75
2019-04-29T03:37:56.069Z,314.25
2019-04-29T03:38:56.065Z,315.00
2019-04-29T03:39:56.067Z,317.33
2019-04-29T03:40:56.033Z,315.98
2019-04-29T03:41:56.017Z,315.05
2019-04-29T03:42:56.066Z,313.63
2019-04-29T03:43:56.002Z,313.98
2019-04-29T03:44:56.171Z,315.37
2019-04-29T03:45:56.004Z,314.86
2019-04-29T03:46:55.972Z,314.04
2019-04-29T03:47:55.955Z,314.28
2019-04-29T03:48:55.946Z,313.75
2019-04-29T03:49:55.940Z,314.71
2019-04-29T03:50:55.945Z,314.00
2019-04-29T03:51:56.009Z,314.33
2019-04-29T03:52:55.908Z,314.00
2019-04-29T03:53:55.892Z,316.00
2019-04-29T03:54:55.889Z,314.11
2019-04-29T03:55:55.901Z,313.77
2019-04-29T03:56:55.857Z,313.60
2019-04-29T03:57:55.856Z,314.44
2019-04-29T03:58:55.892Z,313.75
2019-04-29T03:59:57.095Z,314.38
2019-04-29T04:00:55.812Z,313.44
2019-04-29T04:01:55.811Z,314.07
2019-04-29T04:02:55.786Z,314.56
2019-04-29T04:03:55.783Z,314.57
2019-04-29T04:04:55.808Z,314.98
2019-04-29T04:05:55.753Z,315.40
2019-04-29T04:06:55.744Z,314.98
2019-04-29T04:07:55.748Z,315.17
2019-04-29T04:09:05.592Z,315.19
2019-04-29T04:09:57.199Z,314.93
2019-04-29T04:10:55.722Z,314.57
2019-04-29T04:11:55.685Z,314.06
2019-04-29T04:12:55.673Z,316.09
2019-04-29T04:13:55.669Z,315.27
2019-04-29T04:14:55.650Z,315.86
2019-04-29T04:15:56.070Z,315.88
2019-04-29T04:16:55.643Z,315.19
2019-04-29T04:17:55.643Z,315.33
2019-04-29T04:18:55.622Z,315.90
2019-04-29T04:19:55.611Z,315.29
2019-04-29T04:20:55.604Z,314.61
2019-04-29T04:21:55.604Z,314.32
2019-04-29T04:22:55.576Z,315.45
2019-04-29T04:23:58.182Z,314.37
2019-04-29T04:24:55.552Z,316.23
2019-04-29T04:25:55.565Z,315.04
2019-04-29T04:26:55.528Z,314.81
2019-04-29T04:27:55.518Z,315.06
2019-04-29T04:28:55.512Z,315.33
2019-04-29T04:29:55.498Z,317.01
2019-04-29T04:30:55.491Z,315.16
2019-04-29T04:31:55.503Z,315.15
2019-04-29T04:32:55.454Z,315.62
2019-04-29T04:33:55.465Z,315.95
2019-04-29T04:34:55.440Z,316.08
2019-04-29T04:35:55.443Z,317.75
2019-04-29T04:36:55.448Z,314.47
2019-04-29T04:37:55.402Z,314.56
2019-04-29T04:38:55.386Z,315.71
2019-04-29T04:39:55.391Z,316.01
2019-04-29T04:40:55.378Z,316.48
2019-04-29T04:41:55.386Z,314.90
2019-04-29T04:42:55.365Z,316.03
2019-04-29T04:43:55.356Z,315.82
2019-04-29T04:44:55.338Z,315.85
2019-04-29T04:45:55.322Z,315.66
2019-04-29T04:46:55.324Z,315.70
2019-04-29T04:47:55.304Z,316.00
2019-04-29T04:48:55.304Z,314.58
2019-04-29T04:49:55.291Z,315.33
2019-04-29T04:50:55.266Z,315.24
2019-04-29T04:51:55.257Z,314.30
2019-04-29T04:52:55.253Z,314.72
2019-04-29T04:53:55.244Z,316.00
2019-04-29T04:54:55.225Z,314.97
2019-04-29T04:55:55.218Z,315.52
2019-04-29T04:56:55.217Z,314.85
2019-04-29T04:57:55.186Z,315.61
2019-04-29T04:58:55.177Z,314.28
2019-04-29T04:59:55.164Z,315.48
2019-04-29T05:00:55.157Z,316.26
2019-04-29T05:01:55.168Z,314.51
2019-04-29T05:02:55.213Z,314.77
2019-04-29T05:03:55.119Z,315.35
2019-04-29T05:04:55.127Z,314.19
2019-04-29T05:05:55.103Z,315.67
2019-04-29T05:06:55.100Z,316.73
2019-04-29T05:07:55.073Z,314.91
2019-04-29T05:08:55.089Z,315.93
2019-04-29T05:09:55.059Z,316.92
2019-04-29T05:10:55.041Z,315.74
2019-04-29T05:11:55.052Z,315.54
2019-04-29T05:12:55.027Z,315.04
2019-04-29T05:13:55.026Z,316.30
2019-04-29T05:14:55.006Z,315.23
2019-04-29T05:15:54.985Z,314.50
2019-04-29T05:16:54.998Z,315.79
2019-04-29T05:17:54.966Z,315.19
2019-04-29T05:18:54.945Z,314.58
2019-04-29T05:19:54.945Z,313.62
2019-04-29T05:20:54.958Z,314.69
2019-04-29T05:21:54.945Z,317.18
2019-04-29T05:22:54.911Z,315.44
2019-04-29T05:23:54.919Z,315.33
2019-04-29T05:24:54.889Z,314.77
2019-04-29T05:25:54.879Z,313.83
2019-04-29T05:26:54.901Z,313.54
2019-04-29T05:27:54.867Z,315.46
2019-04-29T05:28:54.844Z,314.75
2019-04-29T05:29:54.828Z,314.39
2019-04-29T05:30:54.814Z,314.23
2019-04-29T05:31:54.838Z,314.85
2019-04-29T05:32:54.813Z,314.73
2019-04-29T05:33:54.794Z,315.69
2019-04-29T05:34:55.140Z,316.86
2019-04-29T05:35:56.888Z,317.76
2019-04-29T05:36:55.776Z,316.39
2019-04-29T05:37:56.795Z,314.96
2019-04-29T05:38:54.729Z,315.62
2019-04-29T05:39:54.728Z,316.06
2019-04-29T05:40:56.859Z,315.16
2019-04-29T05:41:54.720Z,313.79
2019-04-29T05:42:54.724Z,314.81
2019-04-29T05:43:54.685Z,314.14
2019-04-29T05:44:54.686Z,314.09
2019-04-29T05:45:54.664Z,315.06
2019-04-29T05:46:54.674Z,313.83
2019-04-29T05:47:56.979Z,314.46
2019-04-29T05:48:54.621Z,315.31
2019-04-29T05:49:54.634Z,315.79
2019-04-29T05:50:54.621Z,314.76
2019-04-29T05:51:57.609Z,313.70
2019-04-29T05:52:55.586Z,315.14
2019-04-29T05:53:55.852Z,315.73
2019-04-29T05:54:54.564Z,314.92
2019-04-29T05:55:54.548Z,315.77
2019-04-29T05:56:54.552Z,317.13
2019-04-29T05:57:55.854Z,314.93
2019-04-29T05:58:55.519Z,315.79
2019-04-29T05:59:54.504Z,314.40
2019-04-29T06:00:54.487Z,314.26
2019-04-29T06:01:54.508Z,314.27
2019-04-29T06:02:54.470Z,314.24
2019-04-29T06:03:54.462Z,315.90
2019-04-29T06:04:54.467Z,313.65
2019-04-29T06:05:54.444Z,315.63
2019-04-29T06:06:54.433Z,314.71
2019-04-29T06:07:56.210Z,313.60
2019-04-29T06:08:55.409Z,313.46
2019-04-29T06:09:54.395Z,314.49
2019-04-29T06:10:54.381Z,314.53
2019-04-29T06:11:54.376Z,313.89
2019-04-29T06:12:54.387Z,315.33
2019-04-29T06:13:54.347Z,314.73
2019-04-29T06:14:54.334Z,314.16
2019-04-29T06:15:54.411Z,316.57
2019-04-29T06:16:57.596Z,315.66
2019-04-29T06:17:55.335Z,316.52
2019-04-29T06:18:59.786Z,315.66
2019-04-29T06:19:55.281Z,315.07
2019-04-29T06:21:07.889Z,314.04
2019-04-29T06:21:55.259Z,314.18
2019-04-29T06:22:54.270Z,314.87
2019-04-29T06:23:54.738Z,315.27
2019-04-29T06:24:54.239Z,315.83
2019-04-29T06:25:54.231Z,315.50
2019-04-29T06:26:54.216Z,316.88
2019-04-29T06:27:54.216Z,314.02
2019-04-29T06:28:54.187Z,313.79
2019-04-29T06:29:54.176Z,314.07
2019-04-29T06:30:54.186Z,314.13
2019-04-29T06:31:54.166Z,314.74
2019-04-29T06:32:54.177Z,313.91
2019-04-29T06:33:54.123Z,314.23
2019-04-29T06:34:54.116Z,314.42
2019-04-29T06:35:56.928Z,315.61
2019-04-29T06:36:54.099Z,315.05
2019-04-29T06:37:54.115Z,314.77
2019-04-29T06:38:54.080Z,320.78
2019-04-29T06:39:54.058Z,316.50
2019-04-29T06:40:54.051Z,316.53
2019-04-29T06:41:54.056Z,314.89
2019-04-29T06:42:55.203Z,315.11
2019-04-29T06:43:56.060Z,315.25
2019-04-29T06:44:54.000Z,314.79
2019-04-29T06:45:53.994Z,315.24
2019-04-29T06:46:54.574Z,314.36
2019-04-29T06:47:53.997Z,314.47
2019-04-29T06:48:53.974Z,314.86
2019-04-29T06:49:53.951Z,315.00
2019-04-29T06:50:53.970Z,314.84
2019-04-29T06:51:53.938Z,314.82
2019-04-29T06:52:53.936Z,315.53
2019-04-29T06:53:53.901Z,315.43
2019-04-29T06:54:53.916Z,314.93
2019-04-29T06:55:53.893Z,314.92
2019-04-29T06:56:53.868Z,315.99
2019-04-29T06:57:53.882Z,314.83
2019-04-29T06:58:53.849Z,314.96
2019-04-29T06:59:54.905Z,315.01
2019-04-29T07:00:55.929Z,315.65
2019-04-29T07:01:54.833Z,315.12
2019-04-29T07:02:53.840Z,315.19
2019-04-29T07:03:55.735Z,314.17
2019-04-29T07:04:54.784Z,314.31
2019-04-29T07:05:53.774Z,313.94
2019-04-29T07:06:57.510Z,314.78
2019-04-29T07:07:53.767Z,315.46
2019-04-29T07:08:53.748Z,314.51
2019-04-29T07:09:56.706Z,313.72
2019-04-29T07:10:55.894Z,315.13
2019-04-29T07:12:01.131Z,315.45
2019-04-29T07:12:54.723Z,315.57
2019-04-29T07:13:57.695Z,314.74
2019-04-29T07:14:54.678Z,314.66
2019-04-29T07:15:53.673Z,315.87
2019-04-29T07:16:53.646Z,314.51
2019-04-29T07:17:53.665Z,315.05
2019-04-29T07:18:53.892Z,314.08
2019-04-29T07:19:57.447Z,315.61
2019-04-29T07:20:54.611Z,315.49
2019-04-29T07:21:56.458Z,316.80
2019-04-29T07:22:56.536Z,314.93
2019-04-29T07:23:54.585Z,316.61
2019-04-29T07:24:53.570Z,315.40
2019-04-29T07:25:53.554Z,315.38
2019-04-29T07:26:53.545Z,315.83
2019-04-29T07:27:53.533Z,316.02
2019-04-29T07:28:55.285Z,316.41
2019-04-29T07:29:53.509Z,315.69
2019-04-29T07:31:02.662Z,315.90
2019-04-29T07:31:54.489Z,314.95
2019-04-29T07:32:53.489Z,316.74
2019-04-29T07:33:57.548Z,316.35
2019-04-29T07:34:53.465Z,315.86
2019-04-29T07:35:53.451Z,314.60
2019-04-29T07:36:57.618Z,314.05
2019-04-29T07:37:54.418Z,315.38
2019-04-29T07:38:56.695Z,313.79
2019-04-29T07:39:53.394Z,314.44
2019-04-29T07:40:53.398Z,315.16
2019-04-29T07:41:53.740Z,316.08
2019-04-29T07:42:53.362Z,315.82
2019-04-29T07:43:53.382Z,313.85
2019-04-29T07:44:54.163Z,315.04
2019-04-29T07:45:53.340Z,315.98
2019-04-29T07:47:00.370Z,317.35
2019-04-29T07:47:56.704Z,314.40
2019-04-29T07:49:01.467Z,314.29
2019-04-29T07:49:54.303Z,315.51
2019-04-29T07:50:53.277Z,315.22
2019-04-29T07:51:53.270Z,315.07
2019-04-29T07:52:53.284Z,314.36
2019-04-29T07:53:53.273Z,314.91
2019-04-29T07:54:56.126Z,315.88
2019-04-29T07:55:53.232Z,315.17
2019-04-29T07:56:53.208Z,314.99
2019-04-29T07:57:53.277Z,315.70
2019-04-29T07:58:53.236Z,314.73
2019-04-29T07:59:53.187Z,313.81
2019-04-29T08:00:56.142Z,313.92
2019-04-29T08:01:55.591Z,313.92
2019-04-29T08:02:54.132Z,313.62
2019-04-29T08:03:53.134Z,314.11
2019-04-29T08:04:53.599Z,313.82
2019-04-29T08:05:53.116Z,314.34
2019-04-29T08:06:53.121Z,313.66
2019-04-29T08:07:53.094Z,313.45
2019-04-29T08:08:55.134Z,313.34
2019-04-29T08:09:53.107Z,313.20
2019-04-29T08:10:56.583Z,313.41
2019-04-29T08:11:53.047Z,312.80
2019-04-29T08:12:53.043Z,312.76
2019-04-29T08:13:53.102Z,313.75
2019-04-29T08:14:53.305Z,314.92
2019-04-29T08:15:53.023Z,314.63
2019-04-29T08:16:53.006Z,314.48
2019-04-29T08:18:05.945Z,313.54
2019-04-29T08:18:54.920Z,313.26
2019-04-29T08:19:53.006Z,313.51
2019-04-29T08:20:52.947Z,314.04
2019-04-29T08:21:52.941Z,313.05
2019-04-29T08:22:52.919Z,313.95
2019-04-29T08:23:52.939Z,313.59
2019-04-29T08:24:52.922Z,313.57
2019-04-29T08:25:57.311Z,313.40
2019-04-29T08:26:53.891Z,312.28
2019-04-29T08:27:52.876Z,313.60
2019-04-29T08:28:59.934Z,313.72
2019-04-29T08:29:53.846Z,314.05
2019-04-29T08:30:52.841Z,313.27
2019-04-29T08:31:57.305Z,315.80
2019-04-29T08:32:53.803Z,313.50
2019-04-29T08:33:52.819Z,314.72
2019-04-29T08:34:53.613Z,313.94
2019-04-29T08:35:52.794Z,314.27
2019-04-29T08:36:52.773Z,315.14
2019-04-29T08:37:52.765Z,314.13
2019-04-29T08:38:52.756Z,314.14
2019-04-29T08:40:08.473Z,314.01
2019-04-29T08:40:53.748Z,313.91
2019-04-29T08:41:52.719Z,314.04
2019-04-29T08:42:52.704Z,315.65
2019-04-29T08:43:57.766Z,312.62
2019-04-29T08:44:54.792Z,315.35
2019-04-29T08:45:53.721Z,314.43
2019-04-29T08:46:52.906Z,312.50
2019-04-29T08:47:52.652Z,314.12
2019-04-29T08:48:52.649Z,313.67
2019-04-29T08:49:52.652Z,313.77
2019-04-29T08:50:52.644Z,313.96
2019-04-29T08:51:52.617Z,314.02
2019-04-29T08:52:52.585Z,314.00
2019-04-29T08:53:52.575Z,313.57
2019-04-29T08:54:55.478Z,313.25
2019-04-29T08:55:52.596Z,313.64
2019-04-29T08:57:02.789Z,313.31
2019-04-29T08:57:53.553Z,314.14
2019-04-29T08:58:52.536Z,313.00
2019-04-29T08:59:52.514Z,312.76
2019-04-29T09:00:55.707Z,314.52
2019-04-29T09:01:52.498Z,314.40
2019-04-29T09:02:52.484Z,313.56
2019-04-29T09:03:53.632Z,313.85
2019-04-29T09:04:54.077Z,315.87
2019-04-29T09:06:05.071Z,317.50
2019-04-29T09:06:53.454Z,314.76
2019-04-29T09:07:56.778Z,316.01
2019-04-29T09:08:55.088Z,312.15
2019-04-29T09:09:56.290Z,312.76
2019-04-29T09:10:53.437Z,313.36
2019-04-29T09:11:52.404Z,313.00
2019-04-29T09:12:52.406Z,313.99
2019-04-29T09:13:52.386Z,313.84
2019-04-29T09:14:52.396Z,315.12
2019-04-29T09:15:52.358Z,314.33
2019-04-29T09:16:52.376Z,311.92
2019-04-29T09:17:52.321Z,313.23
2019-04-29T09:18:52.300Z,315.40
2019-04-29T09:19:52.322Z,313.48
2019-04-29T09:20:52.296Z,315.39
2019-04-29T09:21:52.283Z,313.71
2019-04-29T09:22:52.268Z,315.72
2019-04-29T09:23:52.266Z,314.11
2019-04-29T09:24:52.276Z,312.53
2019-04-29T09:26:02.593Z,311.70
2019-04-29T09:26:53.218Z,313.75
2019-04-29T09:27:52.238Z,311.21
2019-04-29T09:28:52.207Z,311.72
2019-04-29T09:29:54.299Z,310.86
2019-04-29T09:30:53.192Z,312.42
2019-04-29T09:31:52.166Z,311.55
2019-04-29T09:32:52.167Z,310.27
2019-04-29T09:33:59.689Z,310.85
2019-04-29T09:34:55.501Z,312.09
2019-04-29T09:35:53.141Z,313.35
2019-04-29T09:36:52.100Z,310.65
2019-04-29T09:37:53.872Z,311.75
2019-04-29T09:38:53.081Z,310.12
2019-04-29T09:39:52.072Z,310.96
2019-04-29T09:40:54.513Z,310.51
2019-04-29T09:41:53.051Z,311.68
2019-04-29T09:42:52.041Z,311.57
2019-04-29T09:43:52.052Z,309.54
2019-04-29T09:44:52.022Z,311.14
2019-04-29T09:45:53.918Z,310.67
2019-04-29T09:46:52.984Z,310.64
2019-04-29T09:47:51.978Z,311.98
2019-04-29T09:48:52.024Z,312.44
2019-04-29T09:49:51.970Z,313.10
2019-04-29T09:50:51.942Z,310.04
2019-04-29T09:51:51.931Z,309.89
2019-04-29T09:52:51.922Z,311.70
2019-04-29T09:53:51.939Z,310.32
2019-04-29T09:54:51.919Z,309.79
2019-04-29T09:55:51.903Z,311.70
2019-04-29T09:56:51.902Z,313.16
2019-04-29T09:57:51.875Z,312.88
2019-04-29T09:58:51.854Z,310.92
2019-04-29T09:59:51.845Z,313.55
2019-04-29T10:00:51.838Z,312.53
2019-04-29T10:01:54.993Z,313.74
2019-04-29T10:02:51.820Z,312.02
2019-04-29T10:03:51.812Z,313.12
2019-04-29T10:04:56.894Z,311.87
2019-04-29T10:05:52.775Z,310.83
2019-04-29T10:06:51.791Z,310.55
2019-04-29T10:07:51.763Z,311.45
2019-04-29T10:08:51.745Z,312.38
2019-04-29T10:09:57.555Z,311.60
2019-04-29T10:10:52.726Z,311.54
2019-04-29T10:11:51.727Z,313.81
2019-04-29T10:12:53.889Z,311.20
2019-04-29T10:13:51.704Z,312.07
2019-04-29T10:14:51.684Z,312.28
2019-04-29T10:15:51.669Z,311.62
2019-04-29T10:16:51.689Z,311.67
2019-04-29T10:17:55.482Z,312.62
2019-04-29T10:18:51.633Z,312.75
2019-04-29T10:19:51.623Z,310.61
2019-04-29T10:20:51.624Z,310.92
2019-04-29T10:21:51.632Z,313.04
2019-04-29T10:22:53.706Z,312.32
2019-04-29T10:23:51.579Z,312.38
2019-04-29T10:24:51.580Z,310.79
2019-04-29T10:25:51.557Z,313.38
2019-04-29T10:26:51.552Z,310.77
2019-04-29T10:27:51.572Z,311.55
2019-04-29T10:28:51.525Z,310.48
2019-04-29T10:29:55.355Z,313.24
2019-04-29T10:30:52.502Z,312.29
2019-04-29T10:31:51.482Z,311.84
2019-04-29T10:32:51.526Z,311.91
2019-04-29T10:33:54.819Z,313.19
2019-04-29T10:34:51.468Z,310.93
2019-04-29T10:35:51.460Z,313.09
2019-04-29T10:36:52.570Z,312.86
2019-04-29T10:37:51.443Z,311.37
2019-04-29T10:38:51.430Z,311.34
2019-04-29T10:39:51.473Z,312.90
2019-04-29T10:40:51.396Z,312.78
2019-04-29T10:41:51.381Z,311.65
2019-04-29T10:42:51.376Z,312.50
2019-04-29T10:43:53.555Z,313.02
2019-04-29T10:44:51.358Z,313.69
2019-04-29T10:45:51.343Z,312.49
2019-04-29T10:46:51.338Z,314.68
2019-04-29T10:47:51.347Z,313.02
2019-04-29T10:48:51.298Z,311.46
2019-04-29T10:49:51.325Z,313.28
2019-04-29T10:50:51.987Z,312.13
2019-04-29T10:51:51.268Z,312.54
2019-04-29T10:52:51.288Z,313.94
2019-04-29T10:53:52.655Z,314.83
2019-04-29T10:54:55.214Z,313.74
2019-04-29T10:55:52.214Z,314.66
2019-04-29T10:56:51.219Z,313.95
2019-04-29T10:57:51.498Z,311.83
2019-04-29T10:58:51.217Z,315.16
2019-04-29T10:59:51.221Z,313.65
2019-04-29T11:00:52.746Z,313.41
2019-04-29T11:02:00.991Z,312.31
2019-04-29T11:02:52.139Z,313.15
2019-04-29T11:03:51.152Z,311.14
2019-04-29T11:04:51.135Z,312.69
2019-04-29T11:06:00.434Z,313.50
2019-04-29T11:06:52.112Z,312.16
2019-04-29T11:07:51.096Z,314.60
2019-04-29T11:08:51.105Z,313.70
2019-04-29T11:09:52.536Z,312.03
2019-04-29T11:10:51.061Z,313.40
2019-04-29T11:11:51.043Z,313.06
2019-04-29T11:12:51.037Z,312.65
2019-04-29T11:13:51.055Z,313.05
2019-04-29T11:14:51.006Z,311.75
2019-04-29T11:15:51.312Z,316.28
2019-04-29T11:16:50.998Z,313.09
2019-04-29T11:17:58.842Z,313.66
2019-04-29T11:18:55.036Z,311.51
2019-04-29T11:19:51.970Z,311.85
2019-04-29T11:20:53.801Z,312.08
2019-04-29T11:21:50.947Z,313.30
2019-04-29T11:22:50.923Z,312.19
2019-04-29T11:23:54.718Z,311.93
2019-04-29T11:24:51.930Z,312.69
2019-04-29T11:25:51.549Z,310.75
2019-04-29T11:26:50.872Z,311.83
2019-04-29T11:27:50.868Z,311.77
2019-04-29T11:28:52.250Z,311.91
2019-04-29T11:29:50.875Z,311.02
2019-04-29T11:30:50.864Z,311.98
2019-04-29T11:31:54.043Z,311.41
2019-04-29T11:32:50.823Z,310.76
2019-04-29T11:33:50.811Z,308.77
2019-04-29T11:34:53.406Z,313.42
2019-04-29T11:35:50.799Z,310.80
2019-04-29T11:36:50.783Z,312.17
2019-04-29T11:37:55.356Z,312.12
2019-04-29T11:38:51.785Z,310.67
2019-04-29T11:39:51.724Z,310.59
2019-04-29T11:40:50.730Z,313.82
2019-04-29T11:41:54.700Z,311.80
2019-04-29T11:42:51.717Z,310.72
2019-04-29T11:43:51.495Z,311.38
2019-04-29T11:44:50.701Z,311.98
2019-04-29T11:45:50.672Z,309.85
2019-04-29T11:46:50.771Z,313.08
2019-04-29T11:47:50.640Z,311.93
2019-04-29T11:48:50.643Z,311.33
2019-04-29T11:49:50.654Z,311.79
2019-04-29T11:50:54.743Z,310.95
2019-04-29T11:52:08.252Z,310.26
2019-04-29T11:52:51.611Z,312.66
2019-04-29T11:53:50.633Z,310.27
2019-04-29T11:54:50.580Z,312.85
2019-04-29T11:55:52.460Z,310.95
2019-04-29T11:56:51.570Z,310.01
2019-04-29T11:57:50.545Z,311.25
2019-04-29T11:58:50.525Z,312.03
2019-04-29T11:59:50.548Z,311.72
2019-04-29T12:00:52.127Z,311.29
2019-04-29T12:01:51.722Z,313.45
2019-04-29T12:02:50.495Z,311.73
2019-04-29T12:03:51.341Z,311.17
2019-04-29T12:04:51.460Z,313.37
2019-04-29T12:05:50.480Z,311.84
2019-04-29T12:06:51.331Z,312.29
2019-04-29T12:07:51.442Z,312.69
2019-04-29T12:08:53.396Z,309.36
2019-04-29T12:09:50.427Z,313.67
2019-04-29T12:11:06.052Z,312.02
2019-04-29T12:11:51.410Z,312.13
2019-04-29T12:12:50.468Z,312.18
2019-04-29T12:13:50.364Z,312.43
2019-04-29T12:14:50.357Z,311.69
2019-04-29T12:15:50.364Z,312.41
2019-04-29T12:16:50.343Z,312.42
2019-04-29T12:17:50.313Z,313.19
2019-04-29T12:18:50.314Z,309.78
2019-04-29T12:19:50.306Z,315.04
2019-04-29T12:20:50.294Z,311.36
2019-04-29T12:21:50.303Z,312.67
2019-04-29T12:22:50.300Z,312.44
2019-04-29T12:23:52.004Z,312.53
2019-04-29T12:24:50.250Z,312.14
2019-04-29T12:25:50.231Z,311.18
2019-04-29T12:26:50.213Z,312.74
2019-04-29T12:27:52.807Z,313.53
2019-04-29T12:28:51.230Z,312.64